Etusivu
METAR-TAF:

METAR-TAF

Lentoasemat :

Rusk_County_Airport

Ladysmith, Wisconsin, Yhdysvallat

Leveyspiiri: 45-29-48N, Pituuspiiri: 091-00-01W, korkeus merenpinnasta: 377 m

Tämänhetkinen sää

Tämä raportti tehtiin 21 minuuttia sitten, kello 11.55 UTC
Tuuli 9 kn etelästä/kaakosta
Lämpötila -9°C
Kosteus 67%
Ilmanpaine 1014 hPa
Näkyvyys: 16.1 km
Hajonneita pilviä 6000 ft:n korkeudessa
Pilvistä 7000 ft:n korkeudessa

METAR: KRCX 131155Z AUTO 16009KT 10SM BKN060 OVC070 M09/M14 A2994 RMK AO2 T10911142 11090 21097

Aika: 06:16 (12:16 UTC)


TAF: puuttuu

Säähavainnot ja -ennusteet yli 4000 lentoasemalta (METAR- ja TAF-raportit).

Käytössä olevat sääasemat on merkitty karttaan keltaisilla ja punaisilla pisteillä.

Aseta hiiri pisteen päälle nähdäksesi sääaseman nimen.

Klikkaa sitten nähdäksesi säähavainnot ja -ennusteet.

Kartan vaihtaminen: klikkaa mustalla rastilla varustettuja vihreitä pisteitä, niin voit zoomata sisään; viivalla varustettua vihreää pistettä, niin voit zoomata ulos tai vihreitä nuolia, niin pääset viereisille kartoille.


METAR-TAF: